createdAt,value
2023-08-29T00:01:03.557Z,100481.31
2023-08-29T00:03:35.207Z,100605.47
2023-08-29T00:06:05.338Z,100608.88
2023-08-29T00:08:35.505Z,100586.63
2023-08-29T00:11:09.096Z,100588.38
2023-08-29T00:13:39.052Z,100470.16
2023-08-29T00:16:09.306Z,100608.06
2023-08-29T00:18:39.223Z,100576.38
2023-08-29T00:21:09.092Z,100599.50
2023-08-29T00:23:38.944Z,100578.06
2023-08-29T00:26:11.516Z,100537.84
2023-08-29T00:28:42.178Z,100585.78
2023-08-29T00:31:14.340Z,100560.97
2023-08-29T00:33:44.628Z,100303.31
2023-08-29T00:36:14.545Z,100584.06
2023-08-29T00:38:44.491Z,100512.16
2023-08-29T00:41:16.943Z,100549.81
2023-08-29T00:43:46.816Z,100546.41
2023-08-29T00:46:16.774Z,100548.97
2023-08-29T00:48:48.129Z,100535.25
2023-08-29T00:51:17.989Z,100560.13
2023-08-29T00:53:48.098Z,100538.72
2023-08-29T00:56:21.024Z,100560.97
2023-08-29T00:58:51.117Z,100597.81
2023-08-29T01:01:21.087Z,100599.53
2023-08-29T01:03:51.510Z,100602.06
2023-08-29T01:06:21.728Z,100613.22
2023-08-29T01:08:51.903Z,100620.06
2023-08-29T01:11:30.746Z,100524.94
2023-08-29T01:14:07.690Z,100595.22
2023-08-29T01:16:42.299Z,100633.78
2023-08-29T01:19:17.817Z,100631.19
2023-08-29T01:22:09.168Z,100629.50
2023-08-29T01:24:46.785Z,100625.22
2023-08-29T01:27:20.259Z,100600.38
2023-08-29T01:29:50.280Z,100411.03
2023-08-29T01:32:20.473Z,100618.34
2023-08-29T01:34:52.509Z,100597.78
2023-08-29T01:37:22.387Z,100638.03
2023-08-29T01:39:52.259Z,100628.63
2023-08-29T01:42:24.892Z,100623.47
2023-08-29T01:44:55.220Z,100561.72
2023-08-29T01:47:25.166Z,100637.16
2023-08-29T01:49:55.645Z,100580.56
2023-08-29T01:52:26.418Z,100632.00
2023-08-29T01:54:56.399Z,100643.97
2023-08-29T01:57:31.433Z,100619.09
2023-08-29T02:00:02.360Z,100590.75
2023-08-29T02:02:33.204Z,100621.63
2023-08-29T02:05:03.252Z,100642.22
2023-08-29T02:07:33.134Z,100537.56
2023-08-29T02:10:04.496Z,100628.44
2023-08-29T02:12:37.023Z,100604.38
2023-08-29T02:15:08.060Z,100593.22
2023-08-29T02:17:38.285Z,100557.19
2023-08-29T02:20:12.677Z,100600.09
2023-08-29T02:22:45.436Z,100625.72
2023-08-29T02:25:15.939Z,100586.28
2023-08-29T02:27:48.410Z,100636.00
2023-08-29T02:30:18.343Z,100640.34
2023-08-29T02:32:48.448Z,100636.94
2023-08-29T02:35:18.417Z,100634.38
2023-08-29T02:37:48.308Z,100600.97
2023-08-29T02:40:18.196Z,100633.56
2023-08-29T02:42:50.658Z,100630.16
2023-08-29T02:45:20.548Z,100626.72
2023-08-29T02:47:51.591Z,100626.69
2023-08-29T02:50:21.507Z,100619.84
2023-08-29T02:52:51.333Z,100525.47
2023-08-29T02:55:21.210Z,100564.00
2023-08-29T02:57:53.640Z,100624.06
2023-08-29T03:00:23.626Z,100627.47
2023-08-29T03:02:54.211Z,100596.59
2023-08-29T03:05:24.220Z,100613.75
2023-08-29T03:07:55.943Z,100615.44
2023-08-29T03:10:25.835Z,100616.31
2023-08-29T03:12:58.315Z,100625.75
2023-08-29T03:15:28.194Z,100621.50
2023-08-29T03:18:00.456Z,100509.09
2023-08-29T03:20:31.812Z,100610.28
2023-08-29T03:23:01.787Z,100636.00
2023-08-29T03:25:31.712Z,100642.00
2023-08-29T03:28:05.037Z,100643.75
2023-08-29T03:30:35.168Z,100607.66
2023-08-29T03:33:05.201Z,100640.28
2023-08-29T03:35:35.262Z,100599.13
2023-08-29T03:38:05.433Z,100616.31
2023-08-29T03:40:35.510Z,100606.94
2023-08-29T03:43:08.133Z,100604.34
2023-08-29T03:45:37.994Z,100612.91
2023-08-29T03:48:19.399Z,100563.22
2023-08-29T03:50:54.283Z,100581.16
2023-08-29T03:53:24.347Z,100582.03
2023-08-29T03:55:54.498Z,100527.09
2023-08-29T03:58:27.117Z,100570.88
2023-08-29T04:00:57.754Z,100594.03
2023-08-29T04:03:28.199Z,100570.00
2023-08-29T04:05:58.226Z,100583.69
2023-08-29T04:08:28.223Z,100590.59
2023-08-29T04:10:58.174Z,100566.53
2023-08-29T04:13:31.000Z,100592.22
2023-08-29T04:16:05.101Z,100563.13
2023-08-29T04:18:36.334Z,100545.91
2023-08-29T04:21:06.374Z,100564.00
2023-08-29T04:23:36.227Z,100569.16
2023-08-29T04:26:07.025Z,100557.19
2023-08-29T04:28:39.648Z,100530.66
2023-08-29T04:31:13.215Z,100537.50
2023-08-29T04:33:43.898Z,100561.50
2023-08-29T04:36:13.764Z,100558.94
2023-08-29T04:38:46.134Z,100560.59
2023-08-29T04:41:16.009Z,100556.34
2023-08-29T04:43:48.488Z,100432.97
2023-08-29T04:46:18.386Z,100560.69
2023-08-29T04:48:48.276Z,100553.00
2023-08-29T04:51:18.172Z,100552.16
2023-08-29T04:53:49.321Z,100513.56
2023-08-29T04:56:19.176Z,100556.44
2023-08-29T04:58:52.180Z,100557.31
2023-08-29T05:01:22.075Z,100554.72
2023-08-29T05:03:52.065Z,100558.13
2023-08-29T05:06:22.437Z,100556.41
2023-08-29T05:08:52.318Z,100559.00
2023-08-29T05:11:22.222Z,100559.03
2023-08-29T05:13:54.727Z,100553.00
2023-08-29T05:16:24.589Z,100562.44
2023-08-29T05:18:54.580Z,100563.31
2023-08-29T05:21:24.495Z,100568.47
2023-08-29T05:23:55.531Z,100576.16
2023-08-29T05:26:25.507Z,100560.75
2023-08-29T05:28:58.106Z,100581.25
2023-08-29T05:31:28.029Z,100565.81
2023-08-29T05:33:58.021Z,100561.63
2023-08-29T05:36:27.970Z,100519.59
2023-08-29T05:38:57.822Z,100553.91
2023-08-29T05:41:27.706Z,100533.34
2023-08-29T05:44:00.185Z,100560.81
2023-08-29T05:46:30.108Z,100572.81
2023-08-29T05:49:00.945Z,100585.66
2023-08-29T05:51:31.101Z,100592.53
2023-08-29T05:54:00.950Z,100597.66
2023-08-29T05:56:31.328Z,100563.41
2023-08-29T05:59:03.841Z,100588.25
2023-08-29T06:01:36.527Z,100584.00
2023-08-29T06:04:06.743Z,100583.97
2023-08-29T06:06:40.001Z,100573.72
2023-08-29T06:09:09.970Z,100558.28
2023-08-29T06:11:41.068Z,100560.88
2023-08-29T06:14:13.490Z,100542.88
2023-08-29T06:16:43.379Z,100556.59
2023-08-29T06:19:13.232Z,100548.94
2023-08-29T06:21:43.076Z,100561.78
2023-08-29T06:24:13.072Z,100551.50
2023-08-29T06:26:42.931Z,100563.53
2023-08-29T06:29:15.428Z,100560.09
2023-08-29T06:31:45.333Z,100570.38
2023-08-29T06:34:15.272Z,100565.22
2023-08-29T06:36:45.651Z,100569.50
2023-08-29T06:39:15.601Z,100578.94
2023-08-29T06:41:45.479Z,100575.50
2023-08-29T06:44:18.792Z,100578.09
2023-08-29T06:46:48.716Z,100579.81
2023-08-29T06:49:18.858Z,100576.41
2023-08-29T06:51:48.697Z,100566.97
2023-08-29T06:54:18.542Z,100577.22
2023-08-29T06:56:49.067Z,100576.41
2023-08-29T06:59:21.514Z,100580.69
2023-08-29T07:01:53.763Z,100535.28
2023-08-29T07:04:23.857Z,100579.81
2023-08-29T07:06:53.894Z,100546.41
2023-08-29T07:09:23.913Z,100573.81
2023-08-29T07:11:53.789Z,100565.25
2023-08-29T07:14:26.411Z,100557.50
2023-08-29T07:17:09.395Z,100569.53
2023-08-29T07:19:40.165Z,100571.22
2023-08-29T07:22:23.627Z,100571.19
2023-08-29T07:24:54.987Z,100560.06
2023-08-29T07:27:24.895Z,100536.94
2023-08-29T07:29:57.329Z,100578.06
2023-08-29T07:32:27.242Z,100578.88
2023-08-29T07:34:58.927Z,100584.00
2023-08-29T07:37:28.764Z,100590.03
2023-08-29T07:39:58.614Z,100588.31
2023-08-29T07:42:28.468Z,100598.56
2023-08-29T07:45:00.928Z,100547.16
2023-08-29T07:47:30.855Z,100548.00
2023-08-29T07:50:00.703Z,100591.69
2023-08-29T07:52:30.593Z,100575.44
2023-08-29T07:55:00.818Z,100588.28
2023-08-29T07:57:30.690Z,100508.63
2023-08-29T08:00:03.566Z,100587.38
2023-08-29T08:02:39.700Z,100586.50
2023-08-29T08:05:11.705Z,100593.31
2023-08-29T08:07:41.719Z,100572.69
2023-08-29T08:10:13.018Z,100594.94
2023-08-29T08:12:43.832Z,100600.00
2023-08-29T08:15:16.532Z,100606.81
2023-08-29T08:17:47.697Z,100586.25
2023-08-29T08:20:18.287Z,100614.47
2023-08-29T08:22:48.167Z,100609.28
2023-08-29T08:25:18.015Z,100605.81
2023-08-29T08:27:47.883Z,100598.94
2023-08-29T08:30:20.602Z,100612.66
2023-08-29T08:32:50.473Z,100605.75
2023-08-29T08:35:20.613Z,100615.09
2023-08-29T08:37:50.477Z,100618.47
2023-08-29T08:40:20.448Z,100616.72
2023-08-29T08:42:50.514Z,100609.84
2023-08-29T08:45:25.172Z,100614.03
2023-08-29T08:47:55.874Z,100622.50
2023-08-29T08:50:27.496Z,100563.47
2023-08-29T08:52:59.217Z,100616.47
2023-08-29T08:55:29.687Z,100601.91
2023-08-29T08:58:08.130Z,100619.75
2023-08-29T09:00:40.922Z,100625.66
2023-08-29T09:03:11.113Z,100623.06
2023-08-29T09:05:40.980Z,100632.53
2023-08-29T09:08:11.315Z,100625.59
2023-08-29T09:10:43.085Z,100624.56
2023-08-29T09:13:18.919Z,100637.47
2023-08-29T09:15:52.368Z,100621.03
2023-08-29T09:18:27.581Z,100626.75
2023-08-29T09:20:58.944Z,100626.66
2023-08-29T09:23:31.038Z,100599.34
2023-08-29T09:26:02.667Z,100635.94
2023-08-29T09:28:33.360Z,100619.59
2023-08-29T09:31:12.204Z,100642.56
2023-08-29T09:33:42.306Z,100621.91
2023-08-29T09:36:12.241Z,100604.09
2023-08-29T09:38:45.078Z,100639.03
2023-08-29T09:41:17.724Z,100626.72
2023-08-29T09:43:51.715Z,100632.69
2023-08-29T09:46:30.266Z,100601.13
2023-08-29T09:49:01.127Z,100635.03
2023-08-29T09:51:33.980Z,100605.13
2023-08-29T09:54:09.617Z,100626.28
2023-08-29T09:56:41.968Z,100625.28
2023-08-29T09:59:14.439Z,100573.72
2023-08-29T10:01:48.726Z,100617.19
2023-08-29T10:04:24.817Z,100616.22
2023-08-29T10:06:58.702Z,100613.59
2023-08-29T10:09:29.402Z,100600.47
2023-08-29T10:11:59.900Z,100607.28
2023-08-29T10:14:30.231Z,100607.16
2023-08-29T10:17:08.479Z,100538.03
2023-08-29T10:19:42.297Z,100578.16
2023-08-29T10:22:14.362Z,100562.78
2023-08-29T10:24:45.459Z,100557.88
2023-08-29T10:27:15.379Z,100582.81
2023-08-29T10:29:45.333Z,100592.06
2023-08-29T10:32:18.117Z,100598.75
2023-08-29T10:34:48.087Z,100594.63
2023-08-29T10:37:20.511Z,100587.91
2023-08-29T10:39:52.211Z,100556.84
2023-08-29T10:42:22.465Z,100581.81
2023-08-29T10:44:52.360Z,100580.63
2023-08-29T10:47:28.075Z,100575.91
2023-08-29T10:50:03.637Z,100486.22
2023-08-29T10:52:41.497Z,100562.84
2023-08-29T10:55:24.596Z,100560.19
2023-08-29T10:57:59.799Z,100567.75
2023-08-29T11:00:37.181Z,100514.03
2023-08-29T11:03:09.963Z,100552.41
2023-08-29T11:05:42.280Z,100549.22
2023-08-29T11:08:25.011Z,100529.22
2023-08-29T11:11:17.377Z,100517.63
2023-08-29T11:14:04.173Z,100533.94
2023-08-29T11:16:36.797Z,100547.78
2023-08-29T11:19:15.128Z,100537.97
2023-08-29T11:21:47.435Z,100539.44
2023-08-29T11:24:17.665Z,100519.84
2023-08-29T11:26:48.986Z,100483.72
2023-08-29T11:29:18.929Z,100527.53
2023-08-29T11:31:49.766Z,100529.53
2023-08-29T11:34:22.986Z,100524.56
2023-08-29T11:36:53.999Z,100498.63
2023-08-29T11:39:24.219Z,100525.38
2023-08-29T11:42:06.971Z,100512.72
2023-08-29T11:45:32.863Z,100525.44
2023-08-29T11:47:34.907Z,100532.00
2023-08-29T11:50:08.359Z,100513.50
2023-08-29T11:52:38.311Z,100521.19
2023-08-29T11:55:14.311Z,100520.28
2023-08-29T11:57:46.615Z,100528.38
2023-08-29T12:00:17.766Z,100526.72
2023-08-29T12:02:48.115Z,100440.00
2023-08-29T12:05:24.239Z,100506.00
2023-08-29T12:07:55.937Z,100488.56
2023-08-29T12:10:27.571Z,100513.78
2023-08-29T12:12:57.474Z,100503.16
2023-08-29T12:15:43.970Z,100514.19
2023-08-29T12:18:24.488Z,100507.97
2023-08-29T12:21:13.593Z,100505.53
2023-08-29T12:23:44.029Z,100507.13
2023-08-29T12:26:16.390Z,100511.19
2023-08-29T12:28:46.373Z,100497.94
2023-08-29T12:31:16.631Z,100503.34
2023-08-29T12:33:46.667Z,100499.91
2023-08-29T12:36:19.287Z,100498.97
2023-08-29T12:38:49.239Z,100495.78
2023-08-29T12:41:19.223Z,100487.38
2023-08-29T12:43:49.111Z,100486.34
2023-08-29T12:46:20.261Z,100461.41
2023-08-29T12:48:56.428Z,100481.41
2023-08-29T12:51:28.965Z,100468.19
2023-08-29T12:53:58.840Z,100478.00
2023-08-29T12:56:28.788Z,100471.31
2023-08-29T12:58:58.690Z,100464.00
2023-08-29T13:01:29.865Z,100474.75
2023-08-29T13:03:59.783Z,100471.28
2023-08-29T13:06:32.325Z,100461.28
2023-08-29T13:09:02.670Z,100465.06
2023-08-29T13:11:32.899Z,100459.72
2023-08-29T13:14:03.052Z,100422.13
2023-08-29T13:16:37.278Z,100418.97
2023-08-29T13:19:07.609Z,100448.88
2023-08-29T13:21:40.193Z,100453.91
2023-08-29T13:24:11.535Z,100388.59
2023-08-29T13:26:41.510Z,100416.19
2023-08-29T13:29:11.437Z,100456.16
2023-08-29T13:31:41.700Z,100286.28
2023-08-29T13:34:11.691Z,100425.34
2023-08-29T13:36:44.784Z,100402.59
2023-08-29T13:39:14.711Z,100454.94
2023-08-29T13:41:45.466Z,100422.03
2023-08-29T13:44:15.747Z,100395.75
2023-08-29T13:46:46.942Z,100447.34
2023-08-29T13:49:17.037Z,100445.44
2023-08-29T13:51:50.263Z,100452.38
2023-08-29T13:54:20.292Z,100442.94
2023-08-29T13:56:50.820Z,100448.47
2023-08-29T13:59:20.929Z,100464.66
2023-08-29T14:01:50.994Z,100449.34
2023-08-29T14:04:21.035Z,100390.31
2023-08-29T14:06:53.583Z,100446.31
2023-08-29T14:09:24.031Z,100304.97
2023-08-29T14:11:54.014Z,100438.88
2023-08-29T14:14:25.425Z,100447.56
2023-08-29T14:16:55.391Z,100446.94
2023-08-29T14:19:25.917Z,100379.38
2023-08-29T14:21:58.424Z,100334.56
2023-08-29T14:24:28.586Z,100397.88
2023-08-29T14:26:58.525Z,100414.34
2023-08-29T14:29:32.114Z,100428.84
2023-08-29T14:32:02.346Z,100382.03
2023-08-29T14:34:32.250Z,100375.06
2023-08-29T14:37:05.512Z,100422.66
2023-08-29T14:39:35.542Z,100420.06
2023-08-29T14:42:05.534Z,100397.00
2023-08-29T14:44:35.880Z,100425.00
2023-08-29T14:47:08.818Z,100423.38
2023-08-29T14:49:39.934Z,100418.22
2023-08-29T14:52:12.571Z,100425.22
2023-08-29T14:54:42.451Z,100389.72
2023-08-29T14:57:12.515Z,100382.28
2023-08-29T14:59:43.966Z,100385.53
2023-08-29T15:02:14.154Z,100438.00
2023-08-29T15:04:44.083Z,100437.53
2023-08-29T15:07:17.295Z,100383.53
2023-08-29T15:09:47.411Z,100419.28
2023-08-29T15:12:17.401Z,100356.59
2023-08-29T15:14:47.404Z,100445.00
2023-08-29T15:17:17.345Z,100384.25
2023-08-29T15:19:47.323Z,100403.94
2023-08-29T15:22:19.818Z,100443.91
2023-08-29T15:24:49.778Z,100415.97
2023-08-29T15:27:19.689Z,100438.09
2023-08-29T15:29:49.584Z,100439.94
2023-08-29T15:32:19.540Z,100437.59
2023-08-29T15:34:49.464Z,100441.38
2023-08-29T15:37:22.452Z,100402.94
2023-08-29T15:39:52.456Z,100445.16
2023-08-29T15:42:22.413Z,100446.63
2023-08-29T15:44:52.419Z,100438.59
2023-08-29T15:47:22.864Z,100440.31
2023-08-29T15:49:52.906Z,100401.34
2023-08-29T15:52:25.393Z,100429.56
2023-08-29T15:54:55.316Z,100430.19
2023-08-29T15:57:25.363Z,100426.59
2023-08-29T15:59:55.376Z,100367.16
2023-08-29T16:02:25.378Z,100423.47
2023-08-29T16:04:56.423Z,100420.50
2023-08-29T16:07:29.003Z,100418.38
2023-08-29T16:09:58.881Z,100416.69
2023-08-29T16:12:29.650Z,100413.19
2023-08-29T16:15:00.146Z,100405.28
2023-08-29T16:17:30.240Z,100402.72
2023-08-29T16:20:00.676Z,100364.41
2023-08-29T16:22:33.297Z,100396.25
2023-08-29T16:25:05.866Z,100396.34
2023-08-29T16:27:37.030Z,100407.47
2023-08-29T16:30:08.843Z,100374.53
2023-08-29T16:32:39.089Z,100366.19
2023-08-29T16:35:10.506Z,100354.25
2023-08-29T16:37:43.228Z,100406.91
2023-08-29T16:40:14.176Z,100394.22
2023-08-29T16:42:44.158Z,100398.41
2023-08-29T16:45:14.313Z,100368.56
2023-08-29T16:47:44.234Z,100383.16
2023-08-29T16:50:14.895Z,100363.84
2023-08-29T16:52:47.478Z,100403.81
2023-08-29T16:55:19.817Z,100404.75
2023-08-29T16:57:50.924Z,100405.38
2023-08-29T17:00:21.784Z,100387.31
2023-08-29T17:02:51.749Z,100403.59
2023-08-29T17:05:22.336Z,100388.28
2023-08-29T17:07:55.176Z,100413.06
2023-08-29T17:10:25.179Z,100331.53
2023-08-29T17:12:55.107Z,100366.50
2023-08-29T17:15:25.016Z,100411.59
2023-08-29T17:17:55.119Z,100393.94
2023-08-29T17:20:27.033Z,100393.22
2023-08-29T17:22:59.503Z,100399.69
2023-08-29T17:25:29.639Z,100363.22
2023-08-29T17:27:59.898Z,100364.25
2023-08-29T17:30:30.018Z,100415.50
2023-08-29T17:32:59.962Z,100401.66
2023-08-29T17:35:29.957Z,100330.16
2023-08-29T17:38:02.530Z,100336.91
2023-08-29T17:40:32.513Z,100391.47
2023-08-29T17:43:04.234Z,100396.75
2023-08-29T17:45:34.823Z,100415.41
2023-08-29T17:48:04.732Z,100419.81
2023-08-29T17:50:35.544Z,100417.25
2023-08-29T17:53:08.094Z,100350.88
2023-08-29T17:55:38.951Z,100388.53
2023-08-29T17:58:13.640Z,100392.88
2023-08-29T18:00:45.464Z,100397.19
2023-08-29T18:03:15.667Z,100396.41
2023-08-29T18:05:52.052Z,100422.84
2023-08-29T18:08:27.253Z,100417.69
2023-08-29T18:10:57.988Z,100416.97
2023-08-29T18:13:27.978Z,100344.75
2023-08-29T18:15:58.176Z,100215.56
2023-08-29T18:18:31.546Z,100416.38
2023-08-29T18:21:02.473Z,100402.19
2023-08-29T18:23:35.173Z,100419.25
2023-08-29T18:26:06.472Z,100353.00
2023-08-29T18:28:39.757Z,100419.50
2023-08-29T18:31:09.959Z,100424.03
2023-08-29T18:33:39.880Z,100395.97
2023-08-29T18:36:09.947Z,100435.50
2023-08-29T18:38:42.597Z,100389.34
2023-08-29T18:41:12.919Z,100429.53
2023-08-29T18:43:42.888Z,100402.28
2023-08-29T18:46:13.597Z,100421.06
2023-08-29T18:48:45.254Z,100422.06
2023-08-29T18:51:15.207Z,100352.28
2023-08-29T18:53:47.873Z,100365.88
2023-08-29T18:56:18.421Z,100401.84
2023-08-29T18:58:48.802Z,100419.78
2023-08-29T19:01:18.702Z,100396.88
2023-08-29T19:03:49.085Z,100415.59
2023-08-29T19:06:21.617Z,100425.22
2023-08-29T19:08:55.170Z,100393.75
2023-08-29T19:11:25.083Z,100286.47
2023-08-29T19:13:54.974Z,100341.88
2023-08-29T19:16:25.568Z,100421.22
2023-08-29T19:18:55.563Z,100393.19
2023-08-29T19:21:26.290Z,100429.03
2023-08-29T19:24:00.657Z,100424.72
2023-08-29T19:26:31.328Z,100412.97
2023-08-29T19:29:01.248Z,100376.41
2023-08-29T19:31:31.366Z,100420.03
2023-08-29T19:34:01.310Z,100426.94
2023-08-29T19:36:31.210Z,100368.03
2023-08-29T19:39:16.771Z,100415.84
2023-08-29T19:41:47.569Z,100385.56
2023-08-29T19:44:19.306Z,100425.75
2023-08-29T19:46:50.122Z,100368.03
2023-08-29T19:49:20.239Z,100406.44
2023-08-29T19:51:50.155Z,100420.06
2023-08-29T19:54:22.648Z,100334.06
2023-08-29T19:56:54.287Z,100415.88
2023-08-29T19:59:24.187Z,100368.91
2023-08-29T20:01:54.192Z,100379.84
2023-08-29T20:04:24.294Z,100399.47
2023-08-29T20:06:54.173Z,100411.25
2023-08-29T20:09:26.744Z,100412.13
2023-08-29T20:11:57.302Z,100378.94
2023-08-29T20:14:30.568Z,100393.53
2023-08-29T20:17:05.072Z,100395.25
2023-08-29T20:19:36.357Z,100306.72
2023-08-29T20:22:06.731Z,100410.66
2023-08-29T20:24:39.198Z,100366.59
2023-08-29T20:27:09.373Z,100307.59
2023-08-29T20:29:39.250Z,100411.72
2023-08-29T20:32:09.625Z,100398.25
2023-08-29T20:34:39.551Z,100417.00
2023-08-29T20:37:09.486Z,100369.31
2023-08-29T20:39:41.990Z,100420.56
2023-08-29T20:42:12.327Z,100422.34
2023-08-29T20:44:42.369Z,100420.72
2023-08-29T20:47:13.996Z,100399.50
2023-08-29T20:49:44.104Z,100376.44
2023-08-29T20:52:14.008Z,100390.16
2023-08-29T20:54:46.901Z,100403.81
2023-08-29T20:57:16.798Z,100426.03
2023-08-29T20:59:47.117Z,100418.31
2023-08-29T21:02:17.497Z,100422.66
2023-08-29T21:04:47.798Z,100421.00
2023-08-29T21:07:17.687Z,100419.31
2023-08-29T21:09:50.160Z,100416.69
2023-08-29T21:12:21.619Z,100391.22
2023-08-29T21:14:52.290Z,100388.81
2023-08-29T21:17:23.377Z,100414.44
2023-08-29T21:19:53.250Z,100394.00
2023-08-29T21:22:23.114Z,100416.22
2023-08-29T21:24:55.964Z,100345.41
2023-08-29T21:27:25.957Z,100384.84
2023-08-29T21:29:56.474Z,100386.56
2023-08-29T21:32:27.865Z,100414.75
2023-08-29T21:34:58.519Z,100376.38
2023-08-29T21:37:29.479Z,100384.03
2023-08-29T21:40:02.976Z,100403.66
2023-08-29T21:42:33.448Z,100372.09
2023-08-29T21:45:03.588Z,100389.22
2023-08-29T21:47:34.157Z,100357.69
2023-08-29T21:50:04.567Z,100365.50
2023-08-29T21:52:34.896Z,100365.63
2023-08-29T21:55:09.638Z,100362.22
2023-08-29T21:57:40.247Z,100400.78
2023-08-29T22:00:20.783Z,100372.59
2023-08-29T22:02:50.919Z,100319.66
2023-08-29T22:05:21.561Z,100393.03
2023-08-29T22:07:51.592Z,100205.28
2023-08-29T22:10:24.754Z,100290.47
2023-08-29T22:12:55.198Z,100322.94
2023-08-29T22:15:25.395Z,100292.22
2023-08-29T22:17:55.493Z,100314.34
2023-08-29T22:20:25.776Z,100374.09
2023-08-29T22:22:56.370Z,100203.41
2023-08-29T22:25:28.917Z,100322.06
2023-08-29T22:27:58.976Z,100367.47
2023-08-29T22:30:29.006Z,100295.88
2023-08-29T22:32:58.980Z,100337.75
2023-08-29T22:35:29.036Z,100217.34
2023-08-29T22:37:58.969Z,100326.59
2023-08-29T22:40:32.418Z,100210.47
2023-08-29T22:43:02.305Z,100361.56
2023-08-29T22:45:32.274Z,100350.41
2023-08-29T22:48:02.279Z,100329.09
2023-08-29T22:50:32.278Z,100349.63
2023-08-29T22:53:02.169Z,100090.22
2023-08-29T22:55:35.918Z,100319.97
2023-08-29T22:58:07.112Z,100339.63
2023-08-29T23:00:38.848Z,100311.34
2023-08-29T23:03:08.807Z,100237.03
2023-08-29T23:05:45.811Z,100368.66
2023-08-29T23:08:17.033Z,100238.84
2023-08-29T23:10:49.564Z,100334.44
2023-08-29T23:13:19.916Z,100273.81
2023-08-29T23:15:54.727Z,100184.19
2023-08-29T23:18:27.891Z,100248.16
2023-08-29T23:20:55.483Z,100303.69
2023-08-29T23:23:29.114Z,100196.16
2023-08-29T23:26:02.102Z,100020.38
2023-08-29T23:28:32.201Z,100161.19
2023-08-29T23:31:02.404Z,100217.53
2023-08-29T23:33:32.349Z,100341.41
2023-08-29T23:36:02.439Z,100271.38
2023-08-29T23:38:32.355Z,100333.66
2023-08-29T23:41:04.853Z,100304.69
2023-08-29T23:43:34.854Z,100305.56
2023-08-29T23:46:04.808Z,100138.19
2023-08-29T23:48:34.812Z,100257.75
2023-08-29T23:51:06.103Z,100241.53
2023-08-29T23:53:36.102Z,100140.75
2023-08-29T23:56:08.644Z,100325.22
2023-08-29T23:58:38.534Z,100326.13
